sensor_id;sensor_type;location;lat;lon;timestamp;P1;durP1;ratioP1;P2;durP2;ratioP2
14688;SDS011;7432;48.728;9.154;2024-02-26T00:00:56;9.00;;;8.40;;
14688;SDS011;7432;48.728;9.154;2024-02-26T00:03:23;9.07;;;8.47;;
14688;SDS011;7432;48.728;9.154;2024-02-26T00:05:50;8.87;;;8.27;;
14688;SDS011;7432;48.728;9.154;2024-02-26T00:08:16;8.53;;;8.03;;
14688;SDS011;7432;48.728;9.154;2024-02-26T00:10:42;8.90;;;8.33;;
14688;SDS011;7432;48.728;9.154;2024-02-26T00:13:09;9.37;;;8.77;;
14688;SDS011;7432;48.728;9.154;2024-02-26T00:15:35;9.73;;;9.07;;
14688;SDS011;7432;48.728;9.154;2024-02-26T00:18:01;8.93;;;8.33;;
14688;SDS011;7432;48.728;9.154;2024-02-26T00:20:29;9.20;;;8.70;;
14688;SDS011;7432;48.728;9.154;2024-02-26T00:22:56;9.40;;;8.80;;
14688;SDS011;7432;48.728;9.154;2024-02-26T00:25:22;9.20;;;8.70;;
14688;SDS011;7432;48.728;9.154;2024-02-26T00:27:49;8.90;;;8.40;;
14688;SDS011;7432;48.728;9.154;2024-02-26T00:30:15;8.97;;;8.40;;
14688;SDS011;7432;48.728;9.154;2024-02-26T00:32:42;8.63;;;8.13;;
14688;SDS011;7432;48.728;9.154;2024-02-26T00:35:08;8.70;;;8.10;;
14688;SDS011;7432;48.728;9.154;2024-02-26T00:37:36;8.80;;;8.30;;
14688;SDS011;7432;48.728;9.154;2024-02-26T00:40:03;8.63;;;8.13;;
14688;SDS011;7432;48.728;9.154;2024-02-26T00:42:30;9.37;;;8.77;;
14688;SDS011;7432;48.728;9.154;2024-02-26T00:44:56;9.03;;;8.50;;
14688;SDS011;7432;48.728;9.154;2024-02-26T00:47:22;9.30;;;8.67;;
14688;SDS011;7432;48.728;9.154;2024-02-26T00:49:49;9.03;;;8.53;;
14688;SDS011;7432;48.728;9.154;2024-02-26T00:52:15;8.47;;;7.73;;
14688;SDS011;7432;48.728;9.154;2024-02-26T00:54:43;8.67;;;8.17;;
14688;SDS011;7432;48.728;9.154;2024-02-26T00:57:09;8.90;;;8.40;;
14688;SDS011;7432;48.728;9.154;2024-02-26T00:59:36;8.67;;;8.17;;
14688;SDS011;7432;48.728;9.154;2024-02-26T01:02:03;9.50;;;8.80;;
14688;SDS011;7432;48.728;9.154;2024-02-26T01:04:31;9.03;;;8.53;;
14688;SDS011;7432;48.728;9.154;2024-02-26T01:06:59;8.60;;;8.10;;
14688;SDS011;7432;48.728;9.154;2024-02-26T01:09:25;8.47;;;7.97;;
14688;SDS011;7432;48.728;9.154;2024-02-26T01:11:53;8.40;;;7.90;;
14688;SDS011;7432;48.728;9.154;2024-02-26T01:14:19;8.73;;;8.13;;
14688;SDS011;7432;48.728;9.154;2024-02-26T01:16:45;8.43;;;7.93;;
14688;SDS011;7432;48.728;9.154;2024-02-26T01:19:12;8.50;;;8.00;;
14688;SDS011;7432;48.728;9.154;2024-02-26T01:21:38;9.30;;;8.70;;
14688;SDS011;7432;48.728;9.154;2024-02-26T01:24:05;8.73;;;8.13;;
14688;SDS011;7432;48.728;9.154;2024-02-26T01:26:32;9.13;;;8.53;;
14688;SDS011;7432;48.728;9.154;2024-02-26T01:28:59;9.00;;;8.40;;
14688;SDS011;7432;48.728;9.154;2024-02-26T01:31:26;9.13;;;8.33;;
14688;SDS011;7432;48.728;9.154;2024-02-26T01:33:52;8.80;;;8.20;;
14688;SDS011;7432;48.728;9.154;2024-02-26T01:36:18;9.37;;;8.77;;
14688;SDS011;7432;48.728;9.154;2024-02-26T01:38:45;10.00;;;9.20;;
14688;SDS011;7432;48.728;9.154;2024-02-26T01:41:13;8.70;;;8.13;;
14688;SDS011;7432;48.728;9.154;2024-02-26T01:43:39;9.33;;;8.83;;
14688;SDS011;7432;48.728;9.154;2024-02-26T01:46:07;9.70;;;9.10;;
14688;SDS011;7432;48.728;9.154;2024-02-26T01:48:40;8.83;;;8.33;;
14688;SDS011;7432;48.728;9.154;2024-02-26T01:51:07;8.67;;;8.17;;
14688;SDS011;7432;48.728;9.154;2024-02-26T01:53:33;9.20;;;8.60;;
14688;SDS011;7432;48.728;9.154;2024-02-26T01:56:00;8.73;;;8.13;;
14688;SDS011;7432;48.728;9.154;2024-02-26T01:58:27;9.23;;;8.63;;
14688;SDS011;7432;48.728;9.154;2024-02-26T02:00:55;9.40;;;8.80;;
14688;SDS011;7432;48.728;9.154;2024-02-26T02:03:23;9.40;;;8.90;;
14688;SDS011;7432;48.728;9.154;2024-02-26T02:05:50;9.47;;;8.73;;
14688;SDS011;7432;48.728;9.154;2024-02-26T02:08:16;9.50;;;8.90;;
14688;SDS011;7432;48.728;9.154;2024-02-26T02:10:42;9.67;;;8.97;;
14688;SDS011;7432;48.728;9.154;2024-02-26T02:13:09;9.30;;;8.70;;
14688;SDS011;7432;48.728;9.154;2024-02-26T02:15:35;9.10;;;8.50;;
14688;SDS011;7432;48.728;9.154;2024-02-26T02:18:02;8.83;;;8.30;;
14688;SDS011;7432;48.728;9.154;2024-02-26T02:20:32;9.20;;;8.70;;
14688;SDS011;7432;48.728;9.154;2024-02-26T02:22:59;8.30;;;7.90;;
14688;SDS011;7432;48.728;9.154;2024-02-26T02:25:26;8.80;;;8.30;;
14688;SDS011;7432;48.728;9.154;2024-02-26T02:27:53;9.10;;;8.50;;
14688;SDS011;7432;48.728;9.154;2024-02-26T02:30:20;8.37;;;7.87;;
14688;SDS011;7432;48.728;9.154;2024-02-26T02:32:47;8.57;;;8.07;;
14688;SDS011;7432;48.728;9.154;2024-02-26T02:35:13;8.93;;;8.43;;
14688;SDS011;7432;48.728;9.154;2024-02-26T02:37:41;8.80;;;8.30;;
14688;SDS011;7432;48.728;9.154;2024-02-26T02:40:08;8.50;;;8.07;;
14688;SDS011;7432;48.728;9.154;2024-02-26T02:42:34;9.20;;;8.60;;
14688;SDS011;7432;48.728;9.154;2024-02-26T02:45:01;9.13;;;8.53;;
14688;SDS011;7432;48.728;9.154;2024-02-26T02:47:27;8.40;;;8.00;;
14688;SDS011;7432;48.728;9.154;2024-02-26T02:49:53;8.87;;;8.40;;
14688;SDS011;7432;48.728;9.154;2024-02-26T02:52:20;8.70;;;8.20;;
14688;SDS011;7432;48.728;9.154;2024-02-26T02:54:47;8.93;;;8.43;;
14688;SDS011;7432;48.728;9.154;2024-02-26T02:57:14;8.77;;;8.17;;
14688;SDS011;7432;48.728;9.154;2024-02-26T02:59:40;8.97;;;8.47;;
14688;SDS011;7432;48.728;9.154;2024-02-26T03:02:06;8.13;;;7.63;;
14688;SDS011;7432;48.728;9.154;2024-02-26T03:04:33;8.93;;;8.43;;
14688;SDS011;7432;48.728;9.154;2024-02-26T03:06:59;8.90;;;8.40;;
14688;SDS011;7432;48.728;9.154;2024-02-26T03:09:26;8.57;;;8.17;;
14688;SDS011;7432;48.728;9.154;2024-02-26T03:11:53;7.83;;;7.43;;
14688;SDS011;7432;48.728;9.154;2024-02-26T03:14:20;7.67;;;7.17;;
14688;SDS011;7432;48.728;9.154;2024-02-26T03:16:46;8.70;;;8.20;;
14688;SDS011;7432;48.728;9.154;2024-02-26T03:19:14;7.93;;;7.53;;
14688;SDS011;7432;48.728;9.154;2024-02-26T03:21:40;7.87;;;7.47;;
14688;SDS011;7432;48.728;9.154;2024-02-26T03:24:07;8.70;;;8.20;;
14688;SDS011;7432;48.728;9.154;2024-02-26T03:26:35;8.17;;;7.77;;
14688;SDS011;7432;48.728;9.154;2024-02-26T03:29:03;8.17;;;7.77;;
14688;SDS011;7432;48.728;9.154;2024-02-26T03:31:29;7.10;;;6.70;;
14688;SDS011;7432;48.728;9.154;2024-02-26T03:33:55;7.90;;;7.50;;
14688;SDS011;7432;48.728;9.154;2024-02-26T03:36:22;8.00;;;7.60;;
14688;SDS011;7432;48.728;9.154;2024-02-26T03:38:48;8.80;;;8.30;;
14688;SDS011;7432;48.728;9.154;2024-02-26T03:41:14;8.00;;;7.60;;
14688;SDS011;7432;48.728;9.154;2024-02-26T03:43:40;8.23;;;7.83;;
14688;SDS011;7432;48.728;9.154;2024-02-26T03:46:08;8.27;;;7.87;;
14688;SDS011;7432;48.728;9.154;2024-02-26T03:48:36;8.03;;;7.53;;
14688;SDS011;7432;48.728;9.154;2024-02-26T03:51:02;7.20;;;6.90;;
14688;SDS011;7432;48.728;9.154;2024-02-26T03:53:29;7.70;;;7.30;;
14688;SDS011;7432;48.728;9.154;2024-02-26T03:55:56;8.90;;;8.40;;
14688;SDS011;7432;48.728;9.154;2024-02-26T03:58:22;8.97;;;8.57;;
14688;SDS011;7432;48.728;9.154;2024-02-26T04:00:48;8.10;;;7.70;;
14688;SDS011;7432;48.728;9.154;2024-02-26T04:03:16;7.07;;;6.73;;
14688;SDS011;7432;48.728;9.154;2024-02-26T04:05:42;8.10;;;7.70;;
14688;SDS011;7432;48.728;9.154;2024-02-26T04:08:09;8.50;;;8.00;;
14688;SDS011;7432;48.728;9.154;2024-02-26T04:10:35;8.43;;;7.97;;
14688;SDS011;7432;48.728;9.154;2024-02-26T04:13:03;8.27;;;7.83;;
14688;SDS011;7432;48.728;9.154;2024-02-26T04:15:30;8.80;;;8.30;;
14688;SDS011;7432;48.728;9.154;2024-02-26T04:17:56;7.87;;;7.47;;
14688;SDS011;7432;48.728;9.154;2024-02-26T04:20:24;7.97;;;7.57;;
14688;SDS011;7432;48.728;9.154;2024-02-26T04:22:50;8.80;;;8.20;;
14688;SDS011;7432;48.728;9.154;2024-02-26T04:25:18;8.80;;;8.30;;
14688;SDS011;7432;48.728;9.154;2024-02-26T04:27:44;8.20;;;7.70;;
14688;SDS011;7432;48.728;9.154;2024-02-26T04:30:11;8.83;;;8.33;;
14688;SDS011;7432;48.728;9.154;2024-02-26T04:32:37;9.00;;;8.40;;
14688;SDS011;7432;48.728;9.154;2024-02-26T04:35:04;8.87;;;8.37;;
14688;SDS011;7432;48.728;9.154;2024-02-26T04:37:32;9.67;;;9.07;;
14688;SDS011;7432;48.728;9.154;2024-02-26T04:39:58;9.10;;;8.60;;
14688;SDS011;7432;48.728;9.154;2024-02-26T04:42:25;8.17;;;7.77;;
14688;SDS011;7432;48.728;9.154;2024-02-26T04:44:51;9.00;;;8.47;;
14688;SDS011;7432;48.728;9.154;2024-02-26T04:47:18;9.20;;;8.60;;
14688;SDS011;7432;48.728;9.154;2024-02-26T04:49:44;10.40;;;9.70;;
14688;SDS011;7432;48.728;9.154;2024-02-26T04:52:11;9.50;;;9.00;;
14688;SDS011;7432;48.728;9.154;2024-02-26T04:54:38;9.17;;;8.57;;
14688;SDS011;7432;48.728;9.154;2024-02-26T04:57:05;9.40;;;8.90;;
14688;SDS011;7432;48.728;9.154;2024-02-26T04:59:31;9.70;;;9.10;;
14688;SDS011;7432;48.728;9.154;2024-02-26T05:01:57;9.33;;;8.73;;
14688;SDS011;7432;48.728;9.154;2024-02-26T05:04:24;8.73;;;8.07;;
14688;SDS011;7432;48.728;9.154;2024-02-26T05:06:50;9.07;;;8.47;;
14688;SDS011;7432;48.728;9.154;2024-02-26T05:09:16;8.70;;;8.20;;
14688;SDS011;7432;48.728;9.154;2024-02-26T05:11:44;9.30;;;8.70;;
14688;SDS011;7432;48.728;9.154;2024-02-26T05:14:10;9.60;;;9.00;;
14688;SDS011;7432;48.728;9.154;2024-02-26T05:16:37;9.00;;;8.40;;
14688;SDS011;7432;48.728;9.154;2024-02-26T05:19:03;8.43;;;7.83;;
14688;SDS011;7432;48.728;9.154;2024-02-26T05:21:30;9.63;;;8.97;;
14688;SDS011;7432;48.728;9.154;2024-02-26T05:23:57;9.27;;;8.53;;
14688;SDS011;7432;48.728;9.154;2024-02-26T05:26:23;8.83;;;8.23;;
14688;SDS011;7432;48.728;9.154;2024-02-26T05:28:51;9.33;;;8.73;;
14688;SDS011;7432;48.728;9.154;2024-02-26T05:31:17;9.10;;;8.50;;
14688;SDS011;7432;48.728;9.154;2024-02-26T05:33:44;9.20;;;8.60;;
14688;SDS011;7432;48.728;9.154;2024-02-26T05:36:10;8.77;;;8.17;;
14688;SDS011;7432;48.728;9.154;2024-02-26T05:38:44;9.20;;;8.70;;
14688;SDS011;7432;48.728;9.154;2024-02-26T05:41:11;9.53;;;9.00;;
14688;SDS011;7432;48.728;9.154;2024-02-26T05:43:38;9.50;;;8.80;;
14688;SDS011;7432;48.728;9.154;2024-02-26T05:46:05;9.50;;;8.80;;
14688;SDS011;7432;48.728;9.154;2024-02-26T05:48:32;8.97;;;8.27;;
14688;SDS011;7432;48.728;9.154;2024-02-26T05:50:58;8.33;;;7.83;;
14688;SDS011;7432;48.728;9.154;2024-02-26T05:53:24;8.67;;;8.07;;
14688;SDS011;7432;48.728;9.154;2024-02-26T05:55:51;9.10;;;8.40;;
14688;SDS011;7432;48.728;9.154;2024-02-26T05:58:17;9.83;;;9.13;;
14688;SDS011;7432;48.728;9.154;2024-02-26T06:00:43;8.90;;;8.30;;
14688;SDS011;7432;48.728;9.154;2024-02-26T06:03:11;9.23;;;8.63;;
14688;SDS011;7432;48.728;9.154;2024-02-26T06:05:37;8.87;;;8.27;;
14688;SDS011;7432;48.728;9.154;2024-02-26T06:08:04;9.70;;;9.10;;
14688;SDS011;7432;48.728;9.154;2024-02-26T06:10:31;10.07;;;9.10;;
14688;SDS011;7432;48.728;9.154;2024-02-26T06:12:58;9.53;;;8.83;;
14688;SDS011;7432;48.728;9.154;2024-02-26T06:15:24;9.80;;;9.20;;
14688;SDS011;7432;48.728;9.154;2024-02-26T06:17:50;9.47;;;8.77;;
14688;SDS011;7432;48.728;9.154;2024-02-26T06:20:18;9.40;;;8.80;;
14688;SDS011;7432;48.728;9.154;2024-02-26T06:22:45;9.53;;;8.93;;
14688;SDS011;7432;48.728;9.154;2024-02-26T06:25:11;9.50;;;8.90;;
14688;SDS011;7432;48.728;9.154;2024-02-26T06:27:37;9.57;;;8.80;;
14688;SDS011;7432;48.728;9.154;2024-02-26T06:30:04;9.63;;;8.87;;
14688;SDS011;7432;48.728;9.154;2024-02-26T06:32:31;9.80;;;9.00;;
14688;SDS011;7432;48.728;9.154;2024-02-26T06:34:58;9.00;;;8.37;;
14688;SDS011;7432;48.728;9.154;2024-02-26T06:37:25;9.53;;;8.60;;
14688;SDS011;7432;48.728;9.154;2024-02-26T06:39:52;9.30;;;8.40;;
14688;SDS011;7432;48.728;9.154;2024-02-26T06:42:18;8.53;;;7.93;;
14688;SDS011;7432;48.728;9.154;2024-02-26T06:44:44;9.53;;;8.83;;
14688;SDS011;7432;48.728;9.154;2024-02-26T06:47:11;9.23;;;8.50;;
14688;SDS011;7432;48.728;9.154;2024-02-26T06:49:37;8.43;;;7.83;;
14688;SDS011;7432;48.728;9.154;2024-02-26T06:52:04;9.20;;;8.47;;
14688;SDS011;7432;48.728;9.154;2024-02-26T06:54:32;8.30;;;7.80;;
14688;SDS011;7432;48.728;9.154;2024-02-26T06:56:59;9.13;;;8.50;;
14688;SDS011;7432;48.728;9.154;2024-02-26T06:59:25;7.87;;;7.30;;
14688;SDS011;7432;48.728;9.154;2024-02-26T07:01:51;9.07;;;8.47;;
14688;SDS011;7432;48.728;9.154;2024-02-26T07:04:19;9.60;;;8.80;;
14688;SDS011;7432;48.728;9.154;2024-02-26T07:06:46;8.30;;;7.63;;
14688;SDS011;7432;48.728;9.154;2024-02-26T07:09:13;9.13;;;8.53;;
14688;SDS011;7432;48.728;9.154;2024-02-26T07:11:41;8.80;;;8.20;;
14688;SDS011;7432;48.728;9.154;2024-02-26T07:14:07;9.27;;;8.57;;
14688;SDS011;7432;48.728;9.154;2024-02-26T07:16:34;11.20;;;10.30;;
14688;SDS011;7432;48.728;9.154;2024-02-26T07:19:00;10.40;;;9.60;;
14688;SDS011;7432;48.728;9.154;2024-02-26T07:21:26;11.87;;;10.93;;
14688;SDS011;7432;48.728;9.154;2024-02-26T07:23:53;10.80;;;9.93;;
14688;SDS011;7432;48.728;9.154;2024-02-26T07:26:20;10.00;;;9.20;;
14688;SDS011;7432;48.728;9.154;2024-02-26T07:28:47;11.00;;;10.10;;
14688;SDS011;7432;48.728;9.154;2024-02-26T07:31:14;10.60;;;9.80;;
14688;SDS011;7432;48.728;9.154;2024-02-26T07:33:40;11.50;;;10.60;;
14688;SDS011;7432;48.728;9.154;2024-02-26T07:36:06;10.40;;;9.60;;
14688;SDS011;7432;48.728;9.154;2024-02-26T07:38:33;9.80;;;9.00;;
14688;SDS011;7432;48.728;9.154;2024-02-26T07:40:59;9.57;;;8.87;;
14688;SDS011;7432;48.728;9.154;2024-02-26T07:43:27;9.30;;;8.50;;
14688;SDS011;7432;48.728;9.154;2024-02-26T07:45:55;8.83;;;8.27;;
14688;SDS011;7432;48.728;9.154;2024-02-26T07:48:21;9.50;;;8.70;;
14688;SDS011;7432;48.728;9.154;2024-02-26T07:50:48;9.27;;;8.40;;
14688;SDS011;7432;48.728;9.154;2024-02-26T07:53:14;9.37;;;8.67;;
14688;SDS011;7432;48.728;9.154;2024-02-26T07:55:41;9.17;;;8.37;;
14688;SDS011;7432;48.728;9.154;2024-02-26T07:58:07;7.87;;;7.37;;
14688;SDS011;7432;48.728;9.154;2024-02-26T08:00:33;8.40;;;7.90;;
14688;SDS011;7432;48.728;9.154;2024-02-26T08:03:01;8.80;;;8.30;;
14688;SDS011;7432;48.728;9.154;2024-02-26T08:05:28;8.73;;;8.13;;
14688;SDS011;7432;48.728;9.154;2024-02-26T08:07:54;9.23;;;8.53;;
14688;SDS011;7432;48.728;9.154;2024-02-26T08:10:21;9.17;;;8.57;;
14688;SDS011;7432;48.728;9.154;2024-02-26T08:12:47;9.60;;;8.97;;
14688;SDS011;7432;48.728;9.154;2024-02-26T08:15:13;8.90;;;8.30;;
14688;SDS011;7432;48.728;9.154;2024-02-26T08:17:40;8.77;;;8.17;;
14688;SDS011;7432;48.728;9.154;2024-02-26T08:20:08;9.60;;;8.90;;
14688;SDS011;7432;48.728;9.154;2024-02-26T08:22:35;8.53;;;7.93;;
14688;SDS011;7432;48.728;9.154;2024-02-26T08:25:02;9.03;;;8.43;;
14688;SDS011;7432;48.728;9.154;2024-02-26T08:27:31;8.23;;;7.63;;
14688;SDS011;7432;48.728;9.154;2024-02-26T08:29:58;10.03;;;9.03;;
14688;SDS011;7432;48.728;9.154;2024-02-26T08:32:24;9.20;;;8.60;;
14688;SDS011;7432;48.728;9.154;2024-02-26T08:34:50;9.33;;;8.53;;
14688;SDS011;7432;48.728;9.154;2024-02-26T08:37:18;8.83;;;8.23;;
14688;SDS011;7432;48.728;9.154;2024-02-26T08:39:44;9.17;;;8.47;;
14688;SDS011;7432;48.728;9.154;2024-02-26T08:42:11;8.10;;;7.47;;
14688;SDS011;7432;48.728;9.154;2024-02-26T08:44:38;8.70;;;8.10;;
14688;SDS011;7432;48.728;9.154;2024-02-26T08:47:04;8.47;;;7.90;;
14688;SDS011;7432;48.728;9.154;2024-02-26T08:49:31;8.73;;;8.23;;
14688;SDS011;7432;48.728;9.154;2024-02-26T08:51:57;8.87;;;8.37;;
14688;SDS011;7432;48.728;9.154;2024-02-26T08:54:25;8.23;;;7.73;;
14688;SDS011;7432;48.728;9.154;2024-02-26T08:56:51;10.03;;;9.23;;
14688;SDS011;7432;48.728;9.154;2024-02-26T08:59:17;9.10;;;8.50;;
14688;SDS011;7432;48.728;9.154;2024-02-26T09:01:47;8.40;;;7.90;;
14688;SDS011;7432;48.728;9.154;2024-02-26T09:04:13;9.80;;;9.10;;
14688;SDS011;7432;48.728;9.154;2024-02-26T09:06:40;9.60;;;9.00;;
14688;SDS011;7432;48.728;9.154;2024-02-26T09:09:06;8.87;;;8.37;;
14688;SDS011;7432;48.728;9.154;2024-02-26T09:11:34;8.83;;;8.27;;
14688;SDS011;7432;48.728;9.154;2024-02-26T09:14:01;9.07;;;8.47;;
14688;SDS011;7432;48.728;9.154;2024-02-26T09:16:28;8.47;;;7.97;;
14688;SDS011;7432;48.728;9.154;2024-02-26T09:18:55;9.07;;;8.40;;
14688;SDS011;7432;48.728;9.154;2024-02-26T09:21:22;9.10;;;8.20;;
14688;SDS011;7432;48.728;9.154;2024-02-26T09:23:49;8.23;;;7.73;;
14688;SDS011;7432;48.728;9.154;2024-02-26T09:26:16;7.57;;;7.17;;
14688;SDS011;7432;48.728;9.154;2024-02-26T09:28:44;9.47;;;8.87;;
14688;SDS011;7432;48.728;9.154;2024-02-26T09:31:10;8.83;;;8.33;;
14688;SDS011;7432;48.728;9.154;2024-02-26T09:33:37;9.03;;;8.53;;
14688;SDS011;7432;48.728;9.154;2024-02-26T09:36:03;9.30;;;8.60;;
14688;SDS011;7432;48.728;9.154;2024-02-26T09:38:31;9.03;;;8.43;;
14688;SDS011;7432;48.728;9.154;2024-02-26T09:41:02;8.30;;;7.90;;
14688;SDS011;7432;48.728;9.154;2024-02-26T09:43:30;8.50;;;7.97;;
14688;SDS011;7432;48.728;9.154;2024-02-26T09:46:01;9.20;;;8.57;;
14688;SDS011;7432;48.728;9.154;2024-02-26T09:48:29;8.10;;;7.50;;
14688;SDS011;7432;48.728;9.154;2024-02-26T09:50:56;8.97;;;8.37;;
14688;SDS011;7432;48.728;9.154;2024-02-26T09:53:23;9.60;;;9.00;;
14688;SDS011;7432;48.728;9.154;2024-02-26T09:55:49;9.00;;;8.50;;
14688;SDS011;7432;48.728;9.154;2024-02-26T09:58:15;9.40;;;8.90;;
14688;SDS011;7432;48.728;9.154;2024-02-26T10:00:45;9.43;;;8.83;;
14688;SDS011;7432;48.728;9.154;2024-02-26T10:03:17;9.63;;;8.83;;
14688;SDS011;7432;48.728;9.154;2024-02-26T10:05:47;9.40;;;8.80;;
14688;SDS011;7432;48.728;9.154;2024-02-26T10:08:16;9.40;;;8.90;;
14688;SDS011;7432;48.728;9.154;2024-02-26T10:10:47;9.43;;;8.93;;
14688;SDS011;7432;48.728;9.154;2024-02-26T10:13:14;10.10;;;9.40;;
14688;SDS011;7432;48.728;9.154;2024-02-26T10:15:40;9.20;;;8.40;;
14688;SDS011;7432;48.728;9.154;2024-02-26T10:18:06;8.33;;;7.90;;
14688;SDS011;7432;48.728;9.154;2024-02-26T10:20:34;9.75;;;9.15;;
14688;SDS011;7432;48.728;9.154;2024-02-26T10:23:02;9.97;;;9.37;;
14688;SDS011;7432;48.728;9.154;2024-02-26T10:25:29;8.70;;;8.20;;
14688;SDS011;7432;48.728;9.154;2024-02-26T10:27:58;10.25;;;9.60;;
14688;SDS011;7432;48.728;9.154;2024-02-26T10:30:27;9.30;;;8.60;;
14688;SDS011;7432;48.728;9.154;2024-02-26T10:32:53;10.90;;;10.20;;
14688;SDS011;7432;48.728;9.154;2024-02-26T10:35:20;11.10;;;10.10;;
14688;SDS011;7432;48.728;9.154;2024-02-26T10:37:48;10.23;;;9.37;;
14688;SDS011;7432;48.728;9.154;2024-02-26T10:40:15;10.50;;;9.80;;
14688;SDS011;7432;48.728;9.154;2024-02-26T10:42:42;9.57;;;8.97;;
14688;SDS011;7432;48.728;9.154;2024-02-26T10:45:10;10.70;;;9.97;;
14688;SDS011;7432;48.728;9.154;2024-02-26T10:47:36;10.47;;;9.77;;
14688;SDS011;7432;48.728;9.154;2024-02-26T10:50:04;11.10;;;10.30;;
14688;SDS011;7432;48.728;9.154;2024-02-26T10:52:32;11.30;;;10.30;;
14688;SDS011;7432;48.728;9.154;2024-02-26T10:55:01;10.73;;;9.93;;
14688;SDS011;7432;48.728;9.154;2024-02-26T10:57:29;10.47;;;9.87;;
14688;SDS011;7432;48.728;9.154;2024-02-26T10:59:58;10.83;;;10.13;;
14688;SDS011;7432;48.728;9.154;2024-02-26T11:02:29;10.90;;;10.20;;
14688;SDS011;7432;48.728;9.154;2024-02-26T11:04:56;11.13;;;10.43;;
14688;SDS011;7432;48.728;9.154;2024-02-26T11:07:24;9.67;;;8.90;;
14688;SDS011;7432;48.728;9.154;2024-02-26T11:09:52;9.87;;;9.27;;
14688;SDS011;7432;48.728;9.154;2024-02-26T11:12:21;11.17;;;10.20;;
14688;SDS011;7432;48.728;9.154;2024-02-26T11:14:50;10.47;;;9.87;;
14688;SDS011;7432;48.728;9.154;2024-02-26T11:17:21;10.20;;;9.50;;
14688;SDS011;7432;48.728;9.154;2024-02-26T11:19:48;10.10;;;9.50;;
14688;SDS011;7432;48.728;9.154;2024-02-26T11:22:16;10.00;;;9.40;;
14688;SDS011;7432;48.728;9.154;2024-02-26T11:24:42;9.73;;;9.03;;
14688;SDS011;7432;48.728;9.154;2024-02-26T11:27:10;10.33;;;9.73;;
14688;SDS011;7432;48.728;9.154;2024-02-26T11:29:39;10.03;;;9.43;;
14688;SDS011;7432;48.728;9.154;2024-02-26T11:32:09;9.90;;;9.30;;
14688;SDS011;7432;48.728;9.154;2024-02-26T11:34:36;10.40;;;9.60;;
14688;SDS011;7432;48.728;9.154;2024-02-26T11:37:10;10.43;;;9.73;;
14688;SDS011;7432;48.728;9.154;2024-02-26T11:39:36;9.87;;;9.37;;
14688;SDS011;7432;48.728;9.154;2024-02-26T11:42:07;10.13;;;9.53;;
14688;SDS011;7432;48.728;9.154;2024-02-26T11:44:34;9.97;;;9.27;;
14688;SDS011;7432;48.728;9.154;2024-02-26T11:47:10;9.20;;;8.70;;
14688;SDS011;7432;48.728;9.154;2024-02-26T11:49:38;9.93;;;9.33;;
14688;SDS011;7432;48.728;9.154;2024-02-26T11:52:05;9.37;;;8.80;;
14688;SDS011;7432;48.728;9.154;2024-02-26T11:57:22;9.97;;;9.37;;
14688;SDS011;7432;48.728;9.154;2024-02-26T11:59:50;9.70;;;9.00;;
14688;SDS011;7432;48.728;9.154;2024-02-26T12:05:14;8.63;;;8.00;;
14688;SDS011;7432;48.728;9.154;2024-02-26T12:07:45;9.60;;;9.00;;
14688;SDS011;7432;48.728;9.154;2024-02-26T12:13:00;9.10;;;8.50;;
14688;SDS011;7432;48.728;9.154;2024-02-26T12:15:32;9.00;;;8.30;;
14688;SDS011;7432;48.728;9.154;2024-02-26T12:18:02;9.67;;;9.07;;
14688;SDS011;7432;48.728;9.154;2024-02-26T12:20:30;9.90;;;9.30;;
14688;SDS011;7432;48.728;9.154;2024-02-26T12:22:56;9.20;;;8.70;;
14688;SDS011;7432;48.728;9.154;2024-02-26T12:25:24;9.33;;;8.63;;
14688;SDS011;7432;48.728;9.154;2024-02-26T12:27:51;9.00;;;8.40;;
14688;SDS011;7432;48.728;9.154;2024-02-26T12:30:18;8.83;;;8.33;;
14688;SDS011;7432;48.728;9.154;2024-02-26T12:32:45;9.60;;;9.10;;
14688;SDS011;7432;48.728;9.154;2024-02-26T12:35:13;10.03;;;9.43;;
14688;SDS011;7432;48.728;9.154;2024-02-26T12:37:39;10.03;;;9.47;;
14688;SDS011;7432;48.728;9.154;2024-02-26T12:40:07;10.00;;;9.40;;
14688;SDS011;7432;48.728;9.154;2024-02-26T12:42:34;10.00;;;9.40;;
14688;SDS011;7432;48.728;9.154;2024-02-26T12:45:04;10.30;;;9.60;;
14688;SDS011;7432;48.728;9.154;2024-02-26T12:47:34;10.10;;;9.50;;
14688;SDS011;7432;48.728;9.154;2024-02-26T12:50:02;9.60;;;9.00;;
14688;SDS011;7432;48.728;9.154;2024-02-26T12:52:30;9.87;;;9.37;;
14688;SDS011;7432;48.728;9.154;2024-02-26T12:54:58;9.33;;;8.83;;
14688;SDS011;7432;48.728;9.154;2024-02-26T12:57:24;9.00;;;8.50;;
14688;SDS011;7432;48.728;9.154;2024-02-26T12:59:52;9.67;;;9.07;;
14688;SDS011;7432;48.728;9.154;2024-02-26T13:02:18;9.33;;;8.73;;
14688;SDS011;7432;48.728;9.154;2024-02-26T13:04:45;9.90;;;9.30;;
14688;SDS011;7432;48.728;9.154;2024-02-26T13:07:11;8.90;;;8.40;;
14688;SDS011;7432;48.728;9.154;2024-02-26T13:09:39;9.77;;;9.10;;
14688;SDS011;7432;48.728;9.154;2024-02-26T13:12:06;9.03;;;8.53;;
14688;SDS011;7432;48.728;9.154;2024-02-26T13:14:33;9.57;;;9.03;;
14688;SDS011;7432;48.728;9.154;2024-02-26T13:17:00;9.80;;;9.20;;
14688;SDS011;7432;48.728;9.154;2024-02-26T13:19:27;9.27;;;8.77;;
14688;SDS011;7432;48.728;9.154;2024-02-26T13:21:53;9.10;;;8.50;;
14688;SDS011;7432;48.728;9.154;2024-02-26T13:24:20;9.40;;;8.70;;
14688;SDS011;7432;48.728;9.154;2024-02-26T13:26:48;9.27;;;8.77;;
14688;SDS011;7432;48.728;9.154;2024-02-26T13:29:20;8.83;;;8.43;;
14688;SDS011;7432;48.728;9.154;2024-02-26T13:31:46;8.27;;;7.87;;
14688;SDS011;7432;48.728;9.154;2024-02-26T13:34:22;8.90;;;8.30;;
14688;SDS011;7432;48.728;9.154;2024-02-26T13:36:49;9.00;;;8.50;;
14688;SDS011;7432;48.728;9.154;2024-02-26T13:39:21;8.90;;;8.50;;
14688;SDS011;7432;48.728;9.154;2024-02-26T13:41:50;9.60;;;9.00;;
14688;SDS011;7432;48.728;9.154;2024-02-26T13:44:16;8.90;;;8.50;;
14688;SDS011;7432;48.728;9.154;2024-02-26T13:46:43;9.17;;;8.67;;
14688;SDS011;7432;48.728;9.154;2024-02-26T13:49:09;9.30;;;8.70;;
14688;SDS011;7432;48.728;9.154;2024-02-26T13:51:36;9.20;;;8.53;;
14688;SDS011;7432;48.728;9.154;2024-02-26T13:54:02;9.00;;;8.50;;
14688;SDS011;7432;48.728;9.154;2024-02-26T13:56:29;8.97;;;8.47;;
14688;SDS011;7432;48.728;9.154;2024-02-26T13:58:57;9.40;;;8.90;;
14688;SDS011;7432;48.728;9.154;2024-02-26T14:01:24;9.17;;;8.63;;
14688;SDS011;7432;48.728;9.154;2024-02-26T14:03:50;9.77;;;9.17;;
14688;SDS011;7432;48.728;9.154;2024-02-26T14:06:20;9.70;;;9.10;;
14688;SDS011;7432;48.728;9.154;2024-02-26T14:08:46;9.67;;;9.07;;
14688;SDS011;7432;48.728;9.154;2024-02-26T14:11:13;9.30;;;8.70;;
14688;SDS011;7432;48.728;9.154;2024-02-26T14:13:39;9.30;;;8.80;;
14688;SDS011;7432;48.728;9.154;2024-02-26T14:16:07;9.53;;;9.03;;
14688;SDS011;7432;48.728;9.154;2024-02-26T14:18:35;9.43;;;8.73;;
14688;SDS011;7432;48.728;9.154;2024-02-26T14:21:02;9.30;;;8.53;;
14688;SDS011;7432;48.728;9.154;2024-02-26T14:23:28;9.80;;;9.30;;
14688;SDS011;7432;48.728;9.154;2024-02-26T14:25:55;10.10;;;9.50;;
14688;SDS011;7432;48.728;9.154;2024-02-26T14:28:21;10.03;;;9.43;;
14688;SDS011;7432;48.728;9.154;2024-02-26T14:30:49;9.70;;;9.10;;
14688;SDS011;7432;48.728;9.154;2024-02-26T14:33:17;8.90;;;8.30;;
14688;SDS011;7432;48.728;9.154;2024-02-26T14:35:43;9.33;;;8.83;;
14688;SDS011;7432;48.728;9.154;2024-02-26T14:38:10;9.33;;;8.73;;
14688;SDS011;7432;48.728;9.154;2024-02-26T14:40:36;8.93;;;8.43;;
14688;SDS011;7432;48.728;9.154;2024-02-26T14:43:03;8.83;;;8.27;;
14688;SDS011;7432;48.728;9.154;2024-02-26T14:45:30;9.00;;;8.40;;
14688;SDS011;7432;48.728;9.154;2024-02-26T14:47:57;9.13;;;8.53;;
14688;SDS011;7432;48.728;9.154;2024-02-26T14:50:25;8.67;;;8.17;;
14688;SDS011;7432;48.728;9.154;2024-02-26T14:52:51;8.90;;;8.30;;
14688;SDS011;7432;48.728;9.154;2024-02-26T14:55:17;8.83;;;8.30;;
14688;SDS011;7432;48.728;9.154;2024-02-26T14:57:44;9.20;;;8.70;;
14688;SDS011;7432;48.728;9.154;2024-02-26T15:00:11;8.40;;;8.00;;
14688;SDS011;7432;48.728;9.154;2024-02-26T15:02:37;9.53;;;8.93;;
14688;SDS011;7432;48.728;9.154;2024-02-26T15:05:04;9.37;;;8.77;;
14688;SDS011;7432;48.728;9.154;2024-02-26T15:07:34;8.13;;;7.73;;